Latest Weather Observations for Kalumburu

IDW60801

Issued at 3:34 pm WST Saturday 25 March 2017 (issued every 30 minutes, with the page automatically refreshed every 10 minutes)

About weather observations | Map of weather stations | Latest weather observations for WA | Other Formats
Station Details ID: 001019 Name: KALUMBURU Lat: -14.30 Lon: 126.65 Height: 23.0 m
Data from the previous 72 hours. | See also: Recent months at Kalumburu
Date/Time
WST
Temp
°C
App
Temp
°C
Dew
Point
°C
Rel
Hum
%
Delta-T
°C
Wind Press
QNH
hPa
Press
MSL
hPa
Rain since
9am
mm
Dir  Spd
km/h
Gust
km/h
Spd
kts
Gust
kts
25/03:30pm 30.4 34.2 22.8 64 5.2 WNW 7 13 4 7 1005.7 1005.5 0.0
25/03:00pm 30.5 33.3 23.7 67 4.7 N 15 22 8 12 1005.5 1005.3 0.0
25/02:30pm 31.5 34.6 22.8 60 6.0 NNW 11 19 6 10 1005.5 1005.3 0.0
25/02:00pm 32.8 35.7 23.2 57 6.7 NNW 13 20 7 11 1005.4 1005.2 0.0
25/01:30pm 33.4 36.1 22.8 53 7.3 NNW 13 20 7 11 1005.8 1005.6 0.0
25/01:00pm 33.0 35.6 22.7 54 7.1 NNW 13 22 7 12 1006.4 1006.2 0.0
25/12:30pm 32.6 36.0 23.3 58 6.4 NNW 11 19 6 10 1006.7 1006.5 0.0
25/12:00pm 32.8 35.3 23.2 57 6.7 NNW 15 20 8 11 1007.4 1007.2 0.0
25/11:30am 31.5 33.4 22.8 60 6.0 NW 17 24 9 13 1007.7 1007.5 0.0
25/11:00am 32.6 36.7 24.6 62 5.6 NW 11 17 6 9 1008.4 1008.2 0.0
25/10:30am 32.0 35.0 23.3 60 6.0 NE 13 20 7 11 1008.7 1008.5 0.0
25/10:00am 32.2 34.9 23.4 59 6.1 NNE 15 20 8 11 1009.0 1008.8 0.0
25/09:30am 32.2 35.3 22.9 58 6.4 ENE 11 19 6 10 1009.4 1009.2 0.0
25/09:00am 31.5 35.7 23.1 61 5.8 SSE 6 9 3 5 1009.3 1009.1 0.0
25/08:30am 31.1 34.3 21.6 57 6.4 E 7 11 4 6 1009.6 1009.4 0.0
25/08:00am 30.3 33.4 22.2 62 5.5 NE 9 13 5 7 1009.6 1009.4 0.0
25/07:30am 29.9 35.0 24.1 71 4.0 SE 4 9 2 5 1009.1 1008.9 0.0
25/07:00am 28.4 33.2 24.4 79 2.8 N 7 11 4 6 1009.1 1008.9 0.0
25/06:30am 27.1 33.6 25.1 89 1.4 CALM 0 0 0 0 1008.8 1008.6 0.0
25/06:00am 26.1 32.0 24.1 89 1.4 CALM 0 0 0 0 1008.3 1008.1 0.0
25/05:30am 26.0 30.7 23.9 88 1.4 NE 6 7 3 4 1007.7 1007.5 0.0
25/05:00am 26.2 32.1 24.1 88 1.4 CALM 0 0 0 0 1007.4 1007.2 0.0
25/04:30am 26.6 31.5 24.3 87 1.6 SSW 6 9 3 5 1007.2 1007.0 0.0
25/04:00am 26.4 31.2 24.4 89 1.4 S 7 11 4 6 1006.8 1006.6 0.0
25/03:30am 26.5 31.4 24.3 88 1.5 S 6 9 3 5 1006.6 1006.4 0.0
25/03:00am 26.7 32.5 24.5 88 1.5 SSE 2 6 1 3 1006.5 1006.3 0.0
25/02:30am 27.0 32.1 25.0 89 1.4 SSW 7 9 4 5 1005.9 1005.7 0.0
25/02:00am 26.9 33.2 24.7 88 1.5 CALM 0 0 0 0 1006.1 1005.9 0.0
25/01:30am 27.2 33.8 25.2 89 1.4 CALM 0 0 0 0 1006.7 1006.5 0.0
25/01:00am 27.1 33.6 25.1 89 1.4 CALM 0 0 0 0 1007.6 1007.4 0.0
25/12:30am 26.9 33.3 24.9 89 1.4 CALM 0 0 0 0 1007.7 1007.5 0.0
25/12:00am 26.5 32.5 24.3 88 1.5 CALM 0 0 0 0 1007.9 1007.7 0.0
 
Date/Time
WST
Temp
°C
App
Temp
°C
Dew
Point
°C
Rel
Hum
%
Delta-T
°C
Wind Press
QNH
hPa
Press
MSL
hPa
Rain since
9am
mm
Dir  Spd
km/h
Gust
km/h
Spd
kts
Gust
kts
24/11:30pm 26.5 32.5 24.2 87 1.6 CALM 0 0 0 0 1008.2 1008.0 0.0
24/11:00pm 26.8 32.9 24.5 87 1.6 CALM 0 0 0 0 1008.6 1008.4 0.0
24/10:30pm 26.8 32.8 24.3 86 1.7 CALM 0 0 0 0 1008.7 1008.5 0.0
24/10:00pm 27.3 33.6 24.7 86 1.8 CALM 0 6 0 3 1008.8 1008.6 0.0
24/09:30pm 27.4 33.7 24.8 86 1.8 CALM 0 0 0 0 1008.7 1008.5 0.0
24/09:00pm 27.7 34.1 24.9 85 2.0 CALM 0 0 0 0 1008.5 1008.3 0.0
24/08:30pm 27.8 34.3 25.0 85 2.0 CALM 0 0 0 0 1008.4 1008.2 0.0
24/08:00pm 27.9 34.4 25.1 85 2.0 CALM 0 0 0 0 1008.2 1008.0 0.0
24/07:30pm 27.9 34.3 24.9 84 2.1 CALM 0 4 0 2 1007.7 1007.5 0.0
24/07:00pm 28.3 34.1 25.1 83 2.2 NNW 4 6 2 3 1007.5 1007.3 0.0
24/06:30pm 28.5 34.9 24.9 81 2.5 CALM 0 6 0 3 1007.0 1006.8 0.0
24/06:00pm 28.4 34.5 24.4 79 2.8 CALM 0 7 0 4 1006.8 1006.6 0.0
24/05:30pm 29.8 35.1 24.4 73 3.8 NW 4 11 2 6 1006.4 1006.2 0.0
24/05:00pm 30.4 34.6 24.1 69 4.4 WNW 9 15 5 8 1006.1 1005.9 0.0
24/04:30pm 31.1 35.1 23.7 64 5.1 WNW 9 15 5 8 1005.9 1005.7 0.0
24/04:00pm 32.4 35.5 23.6 59 6.1 WNW 13 20 7 11 1005.7 1005.5 0.0
24/03:30pm 33.0 36.1 23.6 57 6.5 WNW 13 20 7 11 1005.4 1005.2 0.0
24/03:00pm 32.9 36.0 23.5 57 6.5 NW 13 20 7 11 1005.8 1005.6 0.0
24/02:30pm 32.2 35.8 23.7 61 5.9 WNW 11 19 6 10 1006.0 1005.8 0.0
24/02:00pm 31.9 35.9 23.7 62 5.7 NW 9 15 5 8 1006.5 1006.3 0.0
24/01:30pm 32.1 36.1 23.1 59 6.2 W 7 19 4 10 1006.9 1006.7 0.0
24/01:00pm 32.2 36.5 23.7 61 5.9 WNW 7 13 4 7 1007.0 1006.8 0.0
24/12:30pm 31.9 35.7 23.4 60 5.9 WSW 9 17 5 9 1007.2 1007.0 0.0
24/12:00pm 31.8 35.8 23.1 60 6.0 WSW 7 13 4 7 1007.8 1007.6 0.0
24/11:30am 31.6 35.9 24.2 65 5.2 WNW 9 17 5 9 1008.2 1008.0 0.0
24/11:00am 31.9 35.5 23.7 62 5.7 WNW 11 17 6 9 1008.8 1008.6 0.0
24/10:30am 32.2 36.3 24.0 62 5.7 WNW 9 17 5 9 1009.3 1009.1 0.0
24/10:00am 32.2 36.3 23.2 59 6.2 W 7 11 4 6 1009.9 1009.7 0.0
24/09:30am 31.6 35.3 23.2 61 5.8 NW 9 15 5 8 1010.2 1010.0 0.0
24/09:00am 31.0 35.2 24.1 66 4.8 W 9 13 5 7 1010.4 1010.2 -
24/08:30am 30.4 33.8 23.3 66 4.9 WSW 11 19 6 10 1010.6 1010.4 -
24/08:00am 29.6 34.3 24.0 72 3.9 SW 6 9 3 5 1010.7 1010.5 -
24/07:30am 28.3 33.1 24.1 78 2.9 SSW 6 7 3 4 1010.4 1010.2 -
24/07:00am 27.4 33.7 24.7 85 1.9 CALM 0 0 0 0 1010.3 1010.1 -
24/06:30am 26.2 32.2 24.2 89 1.4 CALM 0 0 0 0 1009.9 1009.7 -
24/06:00am 25.3 30.7 23.2 88 1.4 CALM 0 0 0 0 1009.6 1009.4 -
24/05:30am 25.3 30.7 23.2 88 1.4 CALM 0 0 0 0 1009.5 1009.3 -
24/05:00am 25.1 30.3 22.8 87 1.6 CALM 0 0 0 0 1009.2 1009.0 -
24/04:30am 25.3 30.6 23.0 87 1.6 CALM 0 0 0 0 1009.0 1008.8 -
24/04:00am 25.5 30.7 22.8 85 1.8 CALM 0 0 0 0 1008.8 1008.6 -
24/03:30am 26.0 31.2 22.9 83 2.1 CALM 0 6 0 3 1008.7 1008.5 -
24/03:00am 26.6 30.8 23.5 83 2.1 S 7 9 4 5 1008.5 1008.3 -
24/02:30am 26.1 - 23.2 84 2.0 - - - - - 1008.8 1008.6 -
24/02:00am 25.7 30.6 23.0 85 1.8 W 2 7 1 4 1009.1 1008.9 0.0
24/01:30am 25.7 31.0 23.0 85 1.8 CALM 0 0 0 0 1009.1 1008.9 0.0
24/01:00am 26.2 31.8 23.5 85 1.8 CALM 0 4 0 2 1008.9 1008.7 0.0
24/12:30am 26.5 31.6 23.4 83 2.1 W 2 7 1 4 1009.2 1009.0 0.0
24/12:00am 26.5 31.7 23.6 84 2.0 W 2 7 1 4 1009.4 1009.2 0.0
 
Date/Time
WST
Temp
°C
App
Temp
°C
Dew
Point
°C
Rel
Hum
%
Delta-T
°C
Wind Press
QNH
hPa
Press
MSL
hPa
Rain since
9am
mm
Dir  Spd
km/h
Gust
km/h
Spd
kts
Gust
kts
23/11:30pm 26.2 31.5 23.1 83 2.1 CALM 0 0 0 0 1009.5 1009.3 0.0
23/11:00pm 26.3 31.0 23.4 84 2.0 W 4 7 2 4 1009.8 1009.6 0.0
23/10:30pm 25.8 31.2 23.3 86 1.7 CALM 0 0 0 0 1009.8 1009.6 0.0
23/10:00pm 26.1 31.7 23.6 86 1.7 CALM 0 0 0 0 1010.0 1009.8 0.0
23/09:30pm 26.1 31.6 23.4 85 1.8 CALM 0 0 0 0 1010.1 1009.9 0.0
23/09:00pm 26.6 32.3 23.7 84 2.0 CALM 0 0 0 0 1010.0 1009.8 0.0
23/08:30pm 27.2 32.2 23.2 79 2.7 WSW 2 6 1 3 1009.7 1009.5 0.0
23/08:00pm 28.1 33.0 23.7 77 3.0 WSW 4 7 2 4 1009.4 1009.2 0.0
23/07:30pm 28.2 32.6 23.8 77 3.0 WNW 7 11 4 6 1009.0 1008.8 0.0
23/07:00pm 27.3 32.7 23.3 79 2.7 CALM 0 0 0 0 1008.7 1008.5 0.0
23/06:30pm 27.7 32.6 23.1 76 3.1 SW 2 7 1 4 1008.2 1008.0 0.0
23/06:00pm 29.1 33.5 22.8 69 4.3 SW 4 7 2 4 1007.9 1007.7 0.0
23/05:30pm 29.9 33.6 22.6 65 5.0 SW 7 13 4 7 1007.5 1007.3 0.0
23/05:00pm 30.6 33.1 22.5 62 5.5 WNW 13 24 7 13 1007.1 1006.9 0.0
23/04:30pm 31.5 34.0 22.5 59 6.1 W 13 24 7 13 1007.0 1006.8 0.0
23/04:00pm 32.4 35.1 22.8 57 6.6 WNW 13 20 7 11 1007.0 1006.8 0.0
23/03:30pm 32.2 35.4 24.3 63 5.5 WNW 15 26 8 14 1007.0 1006.8 0.0
23/03:00pm 32.8 35.8 24.0 60 6.2 WNW 15 26 8 14 1006.9 1006.7 0.0
23/02:30pm 32.5 35.4 24.5 62 5.6 NW 17 24 9 13 1007.3 1007.1 0.0
23/02:00pm 32.7 36.2 24.2 61 6.0 NW 13 19 7 10 1007.5 1007.3 0.0
23/01:30pm 33.4 37.0 23.1 54 7.1 NNW 9 13 5 7 1007.8 1007.6 0.0
23/01:00pm 34.5 37.5 21.2 46 9.0 W 7 11 4 6 1008.0 1007.8 0.0
23/12:30pm 34.8 37.3 21.1 44 9.3 W 9 15 5 8 1008.3 1008.1 0.0
23/12:00pm 34.7 39.4 24.0 53 7.5 WSW 6 11 3 6 1008.7 1008.5 0.0
23/11:30am 33.4 36.9 22.8 53 7.3 S 9 15 5 8 1009.2 1009.0 0.0
23/11:00am 32.8 36.5 23.2 57 6.6 S 9 15 5 8 1009.7 1009.5 0.0
23/10:30am 32.4 36.1 23.9 61 5.9 S 11 15 6 8 1010.2 1010.0 0.0
23/10:00am 30.8 34.4 23.7 66 4.9 SSW 11 19 6 10 1010.3 1010.1 0.0
23/09:30am 29.8 33.4 23.7 70 4.2 S 11 17 6 9 1010.6 1010.4 0.0
23/09:00am 29.6 33.2 23.8 71 4.0 S 11 17 6 9 1010.8 1010.6 0.0
23/08:30am 28.6 32.6 23.7 75 3.4 S 9 15 5 8 1010.8 1010.6 0.0
23/08:00am 28.0 32.0 23.8 78 2.9 S 9 15 5 8 1010.6 1010.4 0.0
23/07:30am 27.2 31.9 23.9 82 2.3 SSW 6 9 3 5 1010.5 1010.3 0.0
23/07:00am 26.3 30.8 24.0 87 1.6 S 7 11 4 6 1010.4 1010.2 0.0
23/06:30am 25.3 30.5 23.5 90 1.2 S 2 7 1 4 1010.6 1010.4 0.0
23/06:00am 24.6 28.9 22.7 89 1.3 S 4 6 2 3 1010.3 1010.1 0.0
23/05:30am 24.3 29.1 22.2 88 1.4 CALM 0 0 0 0 1010.2 1010.0 0.0
23/05:00am 24.6 29.2 22.5 88 1.4 SSE 2 6 1 3 1009.9 1009.7 0.0
23/04:30am 24.7 29.1 22.8 89 1.3 SSW 4 7 2 4 1009.3 1009.1 0.0
23/04:00am 24.6 29.5 22.3 87 1.5 CALM 0 0 0 0 1009.1 1008.9 0.0
23/03:30am 24.8 29.8 22.5 87 1.5 CALM 0 0 0 0 1008.8 1008.6 0.0
23/03:00am 25.5 29.9 23.4 88 1.4 SSE 6 7 3 4 1008.7 1008.5 0.0
23/02:30am 25.1 29.2 23.0 88 1.4 S 6 7 3 4 1008.7 1008.5 0.0
23/02:00am 25.3 29.5 23.2 88 1.4 S 6 7 3 4 1008.5 1008.3 0.0
23/01:30am 25.1 30.2 22.6 86 1.7 CALM 0 0 0 0 1008.9 1008.7 0.0
23/01:00am 25.6 30.7 23.3 87 1.6 S 2 7 1 4 1009.2 1009.0 0.0
23/12:30am 25.7 29.8 23.0 85 1.8 S 6 7 3 4 1009.6 1009.4 0.0
23/12:00am 26.2 31.5 23.1 83 2.1 CALM 0 6 0 3 1009.9 1009.7 0.0
 
Date/Time
WST
Temp
°C
App
Temp
°C
Dew
Point
°C
Rel
Hum
%
Delta-T
°C
Wind Press
QNH
hPa
Press
MSL
hPa
Rain since
9am
mm
Dir  Spd
km/h
Gust
km/h
Spd
kts
Gust
kts
22/11:30pm 27.1 31.8 23.3 80 2.6 WSW 4 7 2 4 1010.0 1009.8 0.0
22/11:00pm 27.2 31.9 23.4 80 2.6 WSW 4 11 2 6 1010.3 1010.1 0.0
22/10:30pm 27.7 32.1 23.5 78 2.9 W 6 13 3 7 1010.6 1010.4 0.0
22/10:00pm 27.7 32.1 23.5 78 2.9 WNW 6 9 3 5 1010.8 1010.6 0.0
22/09:30pm 27.8 32.4 23.8 79 2.8 W 6 9 3 5 1010.8 1010.6 0.0
22/09:00pm 28.0 32.5 23.6 77 3.0 WNW 6 9 3 5 1010.7 1010.5 0.0
22/08:30pm 28.2 32.2 23.8 77 3.0 WNW 9 15 5 8 1010.3 1010.1 0.0
22/08:00pm 28.2 32.1 23.6 76 3.2 WNW 9 15 5 8 1009.9 1009.7 0.0
22/07:30pm 28.0 32.5 23.6 77 3.0 WNW 6 9 3 5 1009.5 1009.3 0.0
22/07:00pm 27.9 32.4 23.7 78 2.9 NW 6 9 3 5 1008.9 1008.7 0.0
22/06:30pm 28.4 33.0 23.8 76 3.2 WNW 6 9 3 5 1008.6 1008.4 0.0
22/06:00pm 28.8 32.8 23.7 74 3.5 NW 9 17 5 9 1007.9 1007.7 0.0
22/05:30pm 29.2 33.4 24.1 74 3.5 NW 9 13 5 7 1007.3 1007.1 0.0
22/05:00pm 29.6 34.4 24.5 74 3.6 NW 7 15 4 8 1007.0 1006.8 0.0
22/04:30pm 29.5 35.7 24.6 75 3.4 CALM 0 0 0 0 1006.6 1006.4 0.0
22/04:00pm 29.3 35.6 24.8 77 3.2 CALM 0 0 0 0 1006.6 1006.4 0.0

Other Formats:

Comma delimited format used in spreadsheet applications
http://www.bom.gov.au/fwo/IDW60801/IDW60801.94100.axf

JavaScript Object Notation format (JSON) in row-major order
http://www.bom.gov.au/fwo/IDW60801/IDW60801.94100.json